Time;durP1;ratioP1;P1;durP2;ratioP2;P2;SDS_P1;SDS_P2;PMS_P1;PMS_P2;Temp;Humidity;BMP_temperature;BMP_pressure;BME280_temperature;BME280_humidity;BME280_pressure;Samples;Min_cycle;Max_cycle;Signal;HPM_P1;HPM_P2
2021/09/22 07:18:43;;;;;;;65.83;34.37;;;12.10;99.90;;;;;;5123226;27;20340;-70
2021/09/22 07:21:10;;;;;;;66.37;37.30;;;12.00;98.90;;;;;;5125841;27;20055;-70
2021/09/22 07:23:36;;;;;;;56.43;36.40;;;12.10;99.40;;;;;;5125304;28;20031;-73
2021/09/22 07:26:03;;;;;;;70.87;38.70;;;12.10;99.80;;;;;;5124247;27;20104;-72
2021/09/22 07:28:30;;;;;;;71.33;38.10;;;12.20;99.90;;;;;;5125544;28;20945;-68
2021/09/22 07:30:55;;;;;;;54.17;36.27;;;12.30;99.90;;;;;;5125188;28;20035;-68
2021/09/22 07:33:21;;;;;;;54.83;35.83;;;12.40;99.90;;;;;;5125114;27;20081;-69
2021/09/22 07:35:47;;;;;;;50.13;34.37;;;12.50;99.90;;;;;;5125121;27;20044;-68
2021/09/22 07:38:13;;;;;;;57.23;37.17;;;12.50;99.90;;;;;;5125330;28;20545;-73
2021/09/22 07:40:39;;;;;;;53.03;35.50;;;12.60;99.90;;;;;;5124283;28;20052;-74
2021/09/22 07:43:04;;;;;;;53.90;35.20;;;12.70;99.90;;;;;;5125316;28;20115;-75
2021/09/22 07:45:30;;;;;;;51.67;35.07;;;12.80;99.90;;;;;;5125467;27;20056;-73
2021/09/22 07:47:56;;;;;;;50.40;35.83;;;12.90;99.90;;;;;;5124507;28;20479;-73
2021/09/22 07:50:22;;;;;;;66.03;36.33;;;13.00;99.90;;;;;;5125206;28;20043;-72
2021/09/22 07:52:47;;;;;;;56.83;34.70;;;13.10;99.90;;;;;;5124889;28;20064;-73
2021/09/22 07:55:13;;;;;;;52.07;36.80;;;13.30;99.90;;;;;;5124795;28;20479;-72
2021/09/22 07:57:39;;;;;;;56.60;36.80;;;13.40;99.90;;;;;;5126122;28;20062;-74
2021/09/22 08:00:06;;;;;;;51.00;36.27;;;13.50;99.90;;;;;;5126413;28;20107;-74
2021/09/22 08:02:32;;;;;;;46.73;34.97;;;13.60;99.90;;;;;;5125329;27;20040;-75
2021/09/22 08:04:58;;;;;;;52.07;36.73;;;13.70;99.90;;;;;;5124620;27;20048;-76
2021/09/22 08:07:23;;;;;;;51.27;34.10;;;13.80;99.90;;;;;;5124689;28;20062;-74
2021/09/22 08:09:49;;;;;;;51.57;35.10;;;13.90;99.90;;;;;;5123804;27;20132;-74
2021/09/22 08:12:15;;;;;;;49.37;35.47;;;13.90;99.90;;;;;;5124811;28;20039;-73
2021/09/22 08:14:41;;;;;;;50.87;37.07;;;14.00;99.90;;;;;;5124735;28;20061;-75
2021/09/22 08:17:09;;;;;;;52.43;37.43;;;14.10;99.90;;;;;;5124178;28;20146;-73
2021/09/22 08:19:35;;;;;;;49.00;35.67;;;14.20;99.90;;;;;;5124797;27;20067;-74
2021/09/22 08:22:02;;;;;;;49.37;35.60;;;14.30;99.90;;;;;;5123765;28;20088;-72
2021/09/22 08:24:28;;;;;;;44.50;36.57;;;14.40;99.90;;;;;;5124923;28;20474;-73
2021/09/22 08:26:54;;;;;;;46.90;35.73;;;14.40;99.90;;;;;;5124330;28;20051;-72
2021/09/22 08:29:21;;;;;;;52.67;37.70;;;14.50;99.90;;;;;;5114263;28;20130;-73
2021/09/22 08:31:48;;;;;;;51.10;36.67;;;14.60;99.90;;;;;;5111623;28;20072;-71
2021/09/22 08:34:14;;;;;;;49.13;36.67;;;14.70;99.90;;;;;;5112142;28;20529;-74
2021/09/22 08:36:41;;;;;;;46.03;35.40;;;14.80;99.90;;;;;;5109490;28;20044;-73
2021/09/22 08:39:06;;;;;;;50.73;37.07;;;14.90;99.90;;;;;;5111090;28;20079;-73
2021/09/22 08:41:32;;;;;;;48.30;36.30;;;15.00;99.90;;;;;;5110598;28;20078;-70
2021/09/22 08:44:03;;;;;;;48.23;36.07;;;15.10;99.90;;;;;;5109854;28;20116;-71
2021/09/22 08:46:32;;;;;;;47.35;36.75;;;15.30;99.90;;;;;;5110385;28;20067;-70
2021/09/22 08:49:05;;;;;;;48.50;36.60;;;15.40;99.90;;;;;;5111434;28;20051;-70
2021/09/22 08:51:31;;;;;;;46.90;37.13;;;15.40;99.90;;;;;;5110927;28;20044;-70
2021/09/22 08:53:58;;;;;;;48.37;38.30;;;15.50;99.90;;;;;;5111142;28;20096;-69
2021/09/22 08:56:24;;;;;;;49.67;38.77;;;15.60;99.90;;;;;;5111566;28;20120;-68
2021/09/22 08:58:50;;;;;;;50.00;39.23;;;15.70;99.90;;;;;;5110145;28;20051;-69
2021/09/22 09:01:20;;;;;;;47.17;36.57;;;15.70;99.90;;;;;;5111446;28;20044;-69
2021/09/22 09:03:47;;;;;;;49.60;37.50;;;15.80;99.90;;;;;;5111000;28;20495;-69
2021/09/22 18:07:21;;;;;;;13.97;10.33;;;17.00;90.30;;;;;;5122027;27;20352;-75
2021/09/22 18:09:49;;;;;;;17.13;10.53;;;16.80;90.60;;;;;;5122670;28;20051;-78
2021/09/22 18:12:15;;;;;;;15.17;10.87;;;16.80;91.30;;;;;;5120667;27;20436;-73
2021/09/22 18:14:40;;;;;;;13.57;11.00;;;16.80;91.70;;;;;;5124498;28;20047;-74
2021/09/22 18:17:06;;;;;;;19.50;11.67;;;16.70;92.00;;;;;;5125092;28;20100;-73
2021/09/22 18:19:32;;;;;;;31.03;11.90;;;16.70;92.20;;;;;;5125308;27;20039;-74
2021/09/22 18:21:58;;;;;;;16.27;10.70;;;16.70;92.40;;;;;;5123314;28;20047;-73
2021/09/22 18:24:28;;;;;;;16.40;10.93;;;16.70;92.50;;;;;;5123988;28;20467;-73
2021/09/22 18:26:54;;;;;;;11.90;9.83;;;16.70;92.60;;;;;;5114122;27;20062;-74
2021/09/22 18:29:21;;;;;;;18.70;10.73;;;16.70;92.60;;;;;;5137877;27;20036;-73
2021/09/22 18:31:47;;;;;;;16.60;11.47;;;16.70;92.70;;;;;;5103371;28;20359;-73
2021/09/22 18:34:13;;;;;;;16.07;11.30;;;16.70;92.80;;;;;;5103970;28;20046;-73
2021/09/22 18:36:38;;;;;;;13.60;10.60;;;16.70;92.80;;;;;;5103251;28;20052;-71
2021/09/22 18:39:04;;;;;;;14.80;11.00;;;16.60;92.80;;;;;;5104673;28;20044;-72
2021/09/22 18:41:30;;;;;;;17.03;12.03;;;16.60;92.90;;;;;;5102563;28;20428;-74
2021/09/22 18:43:55;;;;;;;17.57;12.10;;;16.60;92.90;;;;;;5103172;28;20078;-75
2021/09/22 18:46:21;;;;;;;13.73;11.97;;;16.60;93.00;;;;;;5110843;28;20061;-75
2021/09/22 18:48:49;;;;;;;14.33;12.30;;;16.60;93.00;;;;;;5124024;28;20464;-74
2021/09/22 18:51:17;;;;;;;17.90;13.13;;;16.60;93.00;;;;;;5123644;28;20039;-73
2021/09/22 18:53:46;;;;;;;19.57;13.53;;;16.60;93.10;;;;;;5123437;28;20050;-75
2021/09/22 18:56:12;;;;;;;19.80;14.50;;;16.50;93.10;;;;;;5122619;28;20510;-78
2021/09/22 18:58:38;;;;;;;24.90;12.80;;;16.50;93.10;;;;;;5123577;28;20067;-78
2021/09/22 19:01:04;;;;;;;16.40;13.07;;;16.50;93.60;;;;;;5122868;28;20071;-77
